createdAt,value
2022-12-01T00:01:27.076Z,24.90
2022-12-01T00:03:55.795Z,24.67
2022-12-01T00:06:24.274Z,26.60
2022-12-01T00:09:13.085Z,24.33
2022-12-01T00:11:45.077Z,25.87
2022-12-01T00:14:13.762Z,25.67
2022-12-01T00:16:44.437Z,25.50
2022-12-01T00:19:12.960Z,25.80
2022-12-01T00:21:41.420Z,25.93
2022-12-01T00:24:11.294Z,26.50
2022-12-01T00:26:40.036Z,26.30
2022-12-01T00:29:10.939Z,25.73
2022-12-01T00:31:40.337Z,25.00
2022-12-01T00:34:11.469Z,27.17
2022-12-01T00:36:40.675Z,26.30
2022-12-01T00:39:09.588Z,25.00
2022-12-01T00:41:37.936Z,25.87
2022-12-01T00:44:06.619Z,24.43
2022-12-01T00:46:36.426Z,26.87
2022-12-01T00:49:05.017Z,25.73
2022-12-01T00:51:33.538Z,26.43
2022-12-01T00:54:02.263Z,26.77
2022-12-01T00:56:30.669Z,25.47
2022-12-01T00:58:59.836Z,25.37
2022-12-01T01:01:28.244Z,24.57
2022-12-01T01:03:59.431Z,25.67
2022-12-01T01:06:27.832Z,25.37
2022-12-01T01:08:56.541Z,26.73
2022-12-01T01:11:24.978Z,26.43
2022-12-01T01:13:53.439Z,26.90
2022-12-01T01:16:22.985Z,26.07
2022-12-01T01:18:51.501Z,27.07
2022-12-01T01:21:22.350Z,23.00
2022-12-01T01:23:51.367Z,25.13
2022-12-01T01:26:21.104Z,25.13
2022-12-01T01:28:49.877Z,24.10
2022-12-01T01:31:20.445Z,25.83
2022-12-01T01:33:49.515Z,25.70
2022-12-01T01:36:18.599Z,24.43
2022-12-01T01:38:51.549Z,24.87
2022-12-01T01:41:20.471Z,26.37
2022-12-01T01:43:49.540Z,26.30
2022-12-01T01:46:18.788Z,25.03
2022-12-01T01:48:51.355Z,25.30
2022-12-01T01:51:21.430Z,23.43
2022-12-01T01:53:51.987Z,25.93
2022-12-01T01:56:22.857Z,25.07
2022-12-01T01:58:51.482Z,25.57
2022-12-01T02:01:20.091Z,25.70
2022-12-01T02:03:49.410Z,24.83
2022-12-01T02:06:17.825Z,24.73
2022-12-01T02:08:46.236Z,25.27
2022-12-01T02:11:35.414Z,25.33
2022-12-01T02:14:09.987Z,26.23
2022-12-01T02:16:43.460Z,27.23
2022-12-01T02:19:21.829Z,26.43
2022-12-01T02:21:55.857Z,25.77
2022-12-01T02:24:39.278Z,27.63
2022-12-01T02:27:14.201Z,29.87
2022-12-01T02:30:00.039Z,27.07
2022-12-01T02:32:32.738Z,28.60
2022-12-01T02:35:02.719Z,28.43
2022-12-01T02:37:33.669Z,27.47
2022-12-01T02:40:05.709Z,29.80
2022-12-01T02:42:51.759Z,29.10
2022-12-01T02:45:22.429Z,28.87
2022-12-01T02:47:54.232Z,28.30
2022-12-01T02:50:23.798Z,30.50
2022-12-01T02:52:52.437Z,31.83
2022-12-01T02:55:20.837Z,31.43
2022-12-01T02:57:49.266Z,30.20
2022-12-01T03:00:18.400Z,32.50
2022-12-01T03:02:51.923Z,29.90
2022-12-01T03:05:25.023Z,31.90
2022-12-01T03:07:58.605Z,28.37
2022-12-01T03:10:30.089Z,27.47
2022-12-01T03:13:06.438Z,27.10
2022-12-01T03:15:37.881Z,31.87
2022-12-01T03:18:09.872Z,30.30
2022-12-01T03:20:43.704Z,28.60
2022-12-01T03:23:14.047Z,28.73
2022-12-01T03:25:44.127Z,26.97
2022-12-01T03:28:22.854Z,28.53
2022-12-01T03:30:54.484Z,26.47
2022-12-01T03:33:28.339Z,26.00
2022-12-01T03:36:00.257Z,27.80
2022-12-01T03:38:29.827Z,28.37
2022-12-01T03:41:00.554Z,27.33
2022-12-01T03:43:32.104Z,27.80
2022-12-01T03:46:05.858Z,27.00
2022-12-01T03:48:34.447Z,28.60
2022-12-01T03:51:10.882Z,27.97
2022-12-01T03:53:45.006Z,29.97
2022-12-01T03:56:15.065Z,28.13
2022-12-01T03:58:46.059Z,29.93
2022-12-01T04:01:14.901Z,31.03
2022-12-01T04:03:44.615Z,30.23
2022-12-01T04:06:14.396Z,30.07
2022-12-01T04:08:42.874Z,30.00
2022-12-01T04:11:29.484Z,29.27
2022-12-01T04:14:00.729Z,30.67
2022-12-01T04:16:29.305Z,31.37
2022-12-01T04:18:57.902Z,32.23
2022-12-01T04:21:27.670Z,29.77
2022-12-01T04:24:02.265Z,31.00
2022-12-01T04:26:32.057Z,32.13
2022-12-01T04:29:00.664Z,31.87
2022-12-01T04:31:29.387Z,31.43
2022-12-01T04:33:57.906Z,33.17
2022-12-01T04:36:28.533Z,30.60
2022-12-01T04:38:58.072Z,30.13
2022-12-01T04:41:26.577Z,31.73
2022-12-01T04:43:55.116Z,30.80
2022-12-01T04:46:23.797Z,31.77
2022-12-01T04:48:52.329Z,31.43
2022-12-01T04:51:22.345Z,32.33
2022-12-01T04:53:52.432Z,32.03
2022-12-01T04:56:20.917Z,30.17
2022-12-01T04:58:51.707Z,29.53
2022-12-01T05:01:21.621Z,31.60
2022-12-01T05:03:51.007Z,32.77
2022-12-01T05:06:22.367Z,31.37
2022-12-01T05:08:52.602Z,33.23
2022-12-01T05:11:21.658Z,33.53
2022-12-01T05:13:50.814Z,30.60
2022-12-01T05:16:20.250Z,30.87
2022-12-01T05:19:12.724Z,31.83
2022-12-01T05:21:40.151Z,32.83
2022-12-01T05:24:10.327Z,33.30
2022-12-01T05:26:38.784Z,34.30
2022-12-01T05:29:08.545Z,30.73
2022-12-01T05:31:37.029Z,31.37
2022-12-01T05:34:05.526Z,34.30
2022-12-01T05:36:34.446Z,35.03
2022-12-01T05:39:02.913Z,35.30
2022-12-01T05:41:35.271Z,31.17
2022-12-01T05:44:03.760Z,32.07
2022-12-01T05:46:32.636Z,31.37
2022-12-01T05:49:01.170Z,29.63
2022-12-01T05:51:29.562Z,31.00
2022-12-01T05:53:58.063Z,30.53
2022-12-01T05:56:26.513Z,31.17
2022-12-01T05:58:56.522Z,30.47
2022-12-01T06:01:25.005Z,31.77
2022-12-01T06:03:54.311Z,32.73
2022-12-01T06:06:22.812Z,28.33
2022-12-01T06:08:51.266Z,30.10
2022-12-01T06:11:20.038Z,29.00
2022-12-01T06:13:48.439Z,29.77
2022-12-01T06:16:18.326Z,31.17
2022-12-01T06:18:46.828Z,29.20
2022-12-01T06:21:15.348Z,29.60
2022-12-01T06:23:44.826Z,31.27
2022-12-01T06:26:13.200Z,28.97
2022-12-01T06:28:41.717Z,29.13
2022-12-01T06:31:10.123Z,29.97
2022-12-01T06:33:40.168Z,28.10
2022-12-01T06:36:09.844Z,30.37
2022-12-01T06:38:39.259Z,30.90
2022-12-01T06:41:07.727Z,31.37
2022-12-01T06:43:39.723Z,30.03
2022-12-01T06:46:08.377Z,29.63
2022-12-01T06:48:37.103Z,27.87
2022-12-01T06:51:07.153Z,29.57
2022-12-01T06:53:35.629Z,28.80
2022-12-01T06:56:04.744Z,29.00
2022-12-01T06:58:34.640Z,28.47
2022-12-01T07:01:11.625Z,28.20
2022-12-01T07:03:40.328Z,27.63
2022-12-01T07:06:10.318Z,27.47
2022-12-01T07:08:38.767Z,28.53
2022-12-01T07:11:08.615Z,27.63
2022-12-01T07:13:37.283Z,27.93
2022-12-01T07:16:06.234Z,27.93
2022-12-01T07:18:35.194Z,29.47
2022-12-01T07:21:04.382Z,29.80
2022-12-01T07:23:34.571Z,29.67
2022-12-01T07:26:03.884Z,29.70
2022-12-01T07:28:32.449Z,27.60
2022-12-01T07:31:05.162Z,27.30
2022-12-01T07:33:33.777Z,27.77
2022-12-01T07:36:02.214Z,26.60
2022-12-01T07:38:30.704Z,28.23
2022-12-01T07:41:05.372Z,27.37
2022-12-01T07:43:35.136Z,28.33
2022-12-01T07:46:07.409Z,26.97
2022-12-01T07:48:36.038Z,26.93
2022-12-01T07:51:04.763Z,26.40
2022-12-01T07:53:33.765Z,27.87
2022-12-01T07:56:08.334Z,27.30
2022-12-01T07:58:37.836Z,25.00
2022-12-01T08:01:10.119Z,27.47
2022-12-01T08:03:38.789Z,25.30
2022-12-01T08:06:08.176Z,27.57
2022-12-01T08:08:37.448Z,26.10
2022-12-01T08:11:08.794Z,27.47
2022-12-01T08:13:37.278Z,27.57
2022-12-01T08:16:06.361Z,27.30
2022-12-01T08:18:36.262Z,25.67
2022-12-01T08:21:05.010Z,27.57
2022-12-01T08:23:33.494Z,25.63
2022-12-01T08:26:02.782Z,25.73
2022-12-01T08:28:32.796Z,26.03
2022-12-01T08:31:01.773Z,27.50
2022-12-01T08:33:30.744Z,27.13
2022-12-01T08:36:02.934Z,25.97
2022-12-01T08:38:31.731Z,26.27
2022-12-01T08:41:01.834Z,25.73
2022-12-01T08:46:20.267Z,26.23
2022-12-01T08:48:48.635Z,26.50
2022-12-01T08:51:18.322Z,26.70
2022-12-01T08:53:49.032Z,24.80
2022-12-01T08:56:20.251Z,26.37
2022-12-01T08:58:48.601Z,24.93
2022-12-01T09:01:19.869Z,26.03
2022-12-01T09:03:48.402Z,24.93
2022-12-01T09:06:20.109Z,28.07
2022-12-01T09:08:48.676Z,27.07
2022-12-01T09:11:18.975Z,27.77
2022-12-01T09:13:54.317Z,27.87
2022-12-01T09:16:24.209Z,27.43
2022-12-01T09:18:52.367Z,25.57
2022-12-01T09:21:23.545Z,26.23
2022-12-01T09:23:52.178Z,26.77
2022-12-01T09:26:21.286Z,27.77
2022-12-01T09:28:50.784Z,25.87
2022-12-01T09:31:20.661Z,25.70
2022-12-01T09:33:54.938Z,26.67
2022-12-01T09:36:23.133Z,27.73
2022-12-01T09:38:51.470Z,26.33
2022-12-01T09:41:22.441Z,27.13
2022-12-01T09:44:00.040Z,27.33
2022-12-01T09:46:33.801Z,26.03
2022-12-01T09:49:05.127Z,28.03
2022-12-01T09:51:37.459Z,27.43
2022-12-01T09:54:05.803Z,27.90
2022-12-01T09:56:40.912Z,27.17
2022-12-01T09:59:17.688Z,26.67
2022-12-01T10:01:50.280Z,26.30
2022-12-01T10:04:26.446Z,26.07
2022-12-01T10:07:01.263Z,26.97
2022-12-01T10:09:36.720Z,25.07
2022-12-01T10:12:14.708Z,26.13
2022-12-01T10:14:47.255Z,27.77
2022-12-01T10:17:28.805Z,25.80
2022-12-01T10:20:04.121Z,26.20
2022-12-01T10:23:08.011Z,24.60
2022-12-01T10:25:44.194Z,28.00
2022-12-01T10:28:33.204Z,25.57
2022-12-01T10:31:10.741Z,25.17
2022-12-01T10:33:50.113Z,25.43
2022-12-01T10:36:19.587Z,24.93
2022-12-01T10:38:47.999Z,23.43
2022-12-01T10:41:19.826Z,25.00
2022-12-01T10:43:52.268Z,26.00
2022-12-01T10:46:25.395Z,25.33
2022-12-01T10:48:55.887Z,22.73
2022-12-01T10:51:26.826Z,22.83
2022-12-01T10:54:00.157Z,23.60
2022-12-01T10:56:28.629Z,23.00
2022-12-01T10:59:00.320Z,24.20
2022-12-01T11:01:31.956Z,22.77
2022-12-01T11:04:02.596Z,22.60
2022-12-01T11:06:33.131Z,24.10
2022-12-01T11:09:05.406Z,25.33
2022-12-01T11:11:37.013Z,27.43
2022-12-01T11:14:07.559Z,27.37
2022-12-01T11:16:42.093Z,27.30
2022-12-01T11:19:27.493Z,26.37
2022-12-01T11:21:59.713Z,24.00
2022-12-01T11:24:40.271Z,24.50
2022-12-01T11:27:16.804Z,25.00
2022-12-01T11:29:47.225Z,25.83
2022-12-01T11:32:23.448Z,24.57
2022-12-01T11:34:55.473Z,24.20
2022-12-01T11:37:29.973Z,25.57
2022-12-01T11:40:13.696Z,25.43
2022-12-01T11:42:42.595Z,22.33
2022-12-01T11:45:32.349Z,26.17
2022-12-01T11:48:06.515Z,25.37
2022-12-01T11:50:36.996Z,23.97
2022-12-01T11:53:05.740Z,26.10
2022-12-01T11:55:33.815Z,26.10
2022-12-01T11:58:05.380Z,25.93
2022-12-01T12:00:46.780Z,25.83
2022-12-01T12:03:29.289Z,26.10
2022-12-01T12:06:39.582Z,27.47
2022-12-01T12:09:18.063Z,26.43
2022-12-01T12:11:54.433Z,25.43
2022-12-01T12:14:29.629Z,26.93
2022-12-01T12:17:18.874Z,29.00
2022-12-01T12:20:08.819Z,26.40
2022-12-01T12:22:55.433Z,28.83
2022-12-01T12:25:27.422Z,28.97
2022-12-01T12:28:07.522Z,29.13
2022-12-01T12:30:43.583Z,28.50
2022-12-01T12:33:39.006Z,30.57
2022-12-01T12:36:20.093Z,31.27
2022-12-01T12:39:02.811Z,30.00
2022-12-01T12:41:40.116Z,29.73
2022-12-01T12:44:38.573Z,30.07
2022-12-01T12:47:15.094Z,27.53
2022-12-01T12:49:46.303Z,27.57
2022-12-01T12:52:18.203Z,25.50
2022-12-01T12:54:49.576Z,26.50
2022-12-01T12:57:22.640Z,26.57
2022-12-01T12:59:53.492Z,28.73
2022-12-01T13:02:23.086Z,28.63
2022-12-01T13:04:54.479Z,29.30
2022-12-01T13:07:30.976Z,29.13
2022-12-01T13:10:01.207Z,28.63
2022-12-01T13:12:31.286Z,29.70
2022-12-01T13:15:03.722Z,27.27
2022-12-01T13:17:35.186Z,27.47
2022-12-01T13:20:03.738Z,27.13
2022-12-01T13:22:34.719Z,24.47
2022-12-01T13:25:04.226Z,28.40
2022-12-01T13:27:34.602Z,27.00
2022-12-01T13:30:03.780Z,26.03
2022-12-01T13:32:36.361Z,23.47
2022-12-01T13:35:06.902Z,26.40
2022-12-01T13:37:38.555Z,27.23
2022-12-01T13:40:09.673Z,26.87
2022-12-01T13:42:39.808Z,24.10
2022-12-01T13:45:17.166Z,23.53
2022-12-01T13:47:51.138Z,26.77
2022-12-01T13:50:40.419Z,24.77
2022-12-01T13:53:16.215Z,23.53
2022-12-01T13:55:56.888Z,27.13
2022-12-01T13:58:45.704Z,22.83
2022-12-01T14:01:35.055Z,23.93
2022-12-01T14:04:23.649Z,23.40
2022-12-01T14:07:12.065Z,24.33
2022-12-01T14:09:44.095Z,24.43
2022-12-01T14:12:18.262Z,24.27
2022-12-01T14:14:49.159Z,25.00
2022-12-01T14:17:26.362Z,25.17
2022-12-01T14:19:55.097Z,25.80
2022-12-01T14:22:34.129Z,25.87
2022-12-01T14:25:05.876Z,25.57
2022-12-01T14:27:34.986Z,26.17
2022-12-01T14:30:18.475Z,24.03
2022-12-01T14:32:46.584Z,25.20
2022-12-01T14:35:16.198Z,24.97
2022-12-01T14:37:49.526Z,25.53
2022-12-01T14:40:25.863Z,23.87
2022-12-01T14:43:15.382Z,25.10
2022-12-01T14:45:56.566Z,23.97
2022-12-01T14:48:29.455Z,24.70
2022-12-01T14:51:17.218Z,24.80
2022-12-01T14:53:47.453Z,24.07
2022-12-01T14:56:19.624Z,25.03
2022-12-01T14:58:56.316Z,25.77
2022-12-01T15:01:25.548Z,24.77
2022-12-01T15:03:58.651Z,25.00
2022-12-01T15:06:29.219Z,23.60
2022-12-01T15:09:33.084Z,24.70
2022-12-01T15:12:03.725Z,26.83
2022-12-01T15:14:33.914Z,25.80
2022-12-01T15:17:05.314Z,25.70
2022-12-01T15:19:35.637Z,24.37
2022-12-01T15:22:06.105Z,24.10
2022-12-01T15:24:34.650Z,23.57
2022-12-01T15:27:04.545Z,25.13
2022-12-01T15:29:34.442Z,25.37
2022-12-01T15:32:04.028Z,24.23
2022-12-01T15:34:33.751Z,22.10
2022-12-01T15:37:04.936Z,23.07
2022-12-01T15:39:35.251Z,27.37
2022-12-01T15:42:05.553Z,26.17
2022-12-01T15:44:35.051Z,24.70
2022-12-01T15:47:18.300Z,25.10
2022-12-01T15:49:49.973Z,24.60
2022-12-01T15:52:18.741Z,24.00
2022-12-01T15:54:49.225Z,23.13
2022-12-01T15:57:20.139Z,22.80
2022-12-01T15:59:49.422Z,21.40
2022-12-01T16:02:28.983Z,23.67
2022-12-01T16:05:05.426Z,26.43
2022-12-01T16:08:11.491Z,25.13
2022-12-01T16:10:28.621Z,27.13
2022-12-01T16:13:11.896Z,29.27
2022-12-01T16:15:45.629Z,28.83
2022-12-01T16:18:26.250Z,25.13
2022-12-01T16:20:54.713Z,31.53
2022-12-01T16:23:25.919Z,28.47
2022-12-01T16:25:57.853Z,28.47
2022-12-01T16:28:32.904Z,28.07
2022-12-01T16:31:05.330Z,26.53
2022-12-01T16:33:36.533Z,32.20
2022-12-01T16:36:05.343Z,27.63
2022-12-01T16:38:33.881Z,28.03
2022-12-01T16:41:03.630Z,30.30
2022-12-01T16:43:31.790Z,29.87
2022-12-01T16:46:03.191Z,31.57
2022-12-01T16:48:32.024Z,29.60
2022-12-01T16:51:04.642Z,28.00
2022-12-01T16:53:32.949Z,30.20
2022-12-01T16:56:03.342Z,34.27
2022-12-01T16:58:31.538Z,31.03
2022-12-01T17:00:59.899Z,31.93
2022-12-01T17:03:30.017Z,31.93
2022-12-01T17:06:00.873Z,32.87
2022-12-01T17:08:29.614Z,34.77
2022-12-01T17:10:57.905Z,35.20
2022-12-01T17:13:26.096Z,33.03
2022-12-01T17:15:55.852Z,33.90
2022-12-01T17:18:25.073Z,38.20
2022-12-01T17:21:01.903Z,35.50
2022-12-01T17:23:30.305Z,36.17
2022-12-01T17:25:58.456Z,36.07
2022-12-01T17:28:26.806Z,33.47
2022-12-01T17:30:55.078Z,31.57
2022-12-01T17:33:23.890Z,31.10
2022-12-01T17:35:52.298Z,33.60
2022-12-01T17:38:22.128Z,31.37
2022-12-01T17:41:00.781Z,35.27
2022-12-01T17:43:29.322Z,28.57
2022-12-01T17:45:57.912Z,35.03
2022-12-01T17:48:26.637Z,33.27
2022-12-01T17:50:55.073Z,29.00
2022-12-01T17:53:25.160Z,33.70
2022-12-01T17:55:53.628Z,35.20
2022-12-01T17:58:22.290Z,36.37
2022-12-01T18:00:51.832Z,34.20
2022-12-01T18:03:21.026Z,31.50
2022-12-01T18:05:58.094Z,34.17
2022-12-01T18:08:30.449Z,30.07
2022-12-01T18:11:02.668Z,30.83
2022-12-01T18:13:31.405Z,27.67
2022-12-01T18:15:59.853Z,30.30
2022-12-01T18:18:28.459Z,26.93
2022-12-01T18:20:59.755Z,31.33
2022-12-01T18:23:30.393Z,28.67
2022-12-01T18:26:01.139Z,28.70
2022-12-01T18:28:29.609Z,25.80
2022-12-01T18:31:00.457Z,31.10
2022-12-01T18:33:31.518Z,27.23
2022-12-01T18:36:02.578Z,28.27
2022-12-01T18:38:32.545Z,26.40
2022-12-01T18:41:01.345Z,27.13
2022-12-01T18:43:30.943Z,30.63
2022-12-01T18:46:00.015Z,27.27
2022-12-01T18:48:28.515Z,27.27
2022-12-01T18:50:59.552Z,28.57
2022-12-01T18:53:28.180Z,32.83
2022-12-01T18:55:57.930Z,30.10
2022-12-01T18:58:26.535Z,32.77
2022-12-01T19:00:54.925Z,30.63
2022-12-01T19:03:23.409Z,30.13
2022-12-01T19:05:52.931Z,30.03
2022-12-01T19:08:21.932Z,30.20
2022-12-01T19:11:00.592Z,30.97
2022-12-01T19:13:29.393Z,28.67
2022-12-01T19:15:58.086Z,32.97
2022-12-01T19:18:26.875Z,29.93
2022-12-01T19:20:55.456Z,31.87
2022-12-01T19:23:23.954Z,29.13
2022-12-01T19:25:52.459Z,33.60
2022-12-01T19:28:22.992Z,27.83
2022-12-01T19:30:52.032Z,48.53
2022-12-01T19:33:21.093Z,30.23
2022-12-01T19:35:49.600Z,30.80
2022-12-01T19:38:18.048Z,30.63
2022-12-01T19:40:46.688Z,29.50
2022-12-01T19:43:15.112Z,28.27
2022-12-01T19:45:44.918Z,32.87
2022-12-01T19:48:13.401Z,27.27
2022-12-01T19:50:41.922Z,30.73
2022-12-01T19:53:10.414Z,27.17
2022-12-01T19:55:38.852Z,27.63
2022-12-01T19:58:07.496Z,29.07
2022-12-01T20:00:35.981Z,29.30
2022-12-01T20:03:05.936Z,32.43
2022-12-01T20:05:34.698Z,30.70
2022-12-01T20:08:03.314Z,40.40
2022-12-01T20:10:31.876Z,36.30
2022-12-01T20:13:01.669Z,35.13
2022-12-01T20:15:30.154Z,31.00
2022-12-01T20:17:58.584Z,41.73
2022-12-01T20:20:28.443Z,32.43
2022-12-01T20:22:57.519Z,36.90
2022-12-01T20:25:26.073Z,57.23
2022-12-01T20:27:54.491Z,30.70
2022-12-01T20:30:22.941Z,32.67
2022-12-01T20:32:51.399Z,32.63
2022-12-01T20:35:19.971Z,38.20
2022-12-01T20:37:49.760Z,30.73
2022-12-01T20:40:18.736Z,33.80
2022-12-01T20:42:47.821Z,34.43
2022-12-01T20:45:16.235Z,32.80
2022-12-01T20:47:44.713Z,31.77
2022-12-01T20:50:13.203Z,35.60
2022-12-01T20:52:42.638Z,49.30
2022-12-01T20:55:12.556Z,46.67
2022-12-01T20:57:41.210Z,32.60
2022-12-01T21:00:13.091Z,36.83
2022-12-01T21:02:41.600Z,34.30
2022-12-01T21:05:10.317Z,32.17
2022-12-01T21:07:39.096Z,31.27
2022-12-01T21:10:08.234Z,32.83
2022-12-01T21:12:57.394Z,35.23
2022-12-01T21:15:27.677Z,33.00
2022-12-01T21:17:58.503Z,31.70
2022-12-01T21:20:28.158Z,32.57
2022-12-01T21:22:59.769Z,32.97
2022-12-01T21:25:28.359Z,33.43
2022-12-01T21:27:59.856Z,35.73
2022-12-01T21:30:29.831Z,32.60
2022-12-01T21:33:05.034Z,36.57
2022-12-01T21:35:33.478Z,35.17
2022-12-01T21:38:03.431Z,38.10
2022-12-01T21:40:33.081Z,37.10
2022-12-01T21:43:07.267Z,36.37
2022-12-01T21:45:35.746Z,36.47
2022-12-01T21:48:12.581Z,36.60
2022-12-01T21:50:41.058Z,35.10
2022-12-01T21:53:13.199Z,36.80
2022-12-01T21:55:42.318Z,34.93
2022-12-01T21:58:24.485Z,37.57
2022-12-01T22:00:53.620Z,37.07
2022-12-01T22:03:32.892Z,36.20
2022-12-01T22:06:31.314Z,34.77
2022-12-01T22:08:52.565Z,38.37
2022-12-01T22:11:22.153Z,33.53
2022-12-01T22:13:55.164Z,36.40
2022-12-01T22:16:24.298Z,39.60
2022-12-01T22:18:53.646Z,39.63
2022-12-01T22:21:29.002Z,38.60
2022-12-01T22:24:01.243Z,41.10
2022-12-01T22:26:30.075Z,38.97
2022-12-01T22:29:00.654Z,39.30
2022-12-01T22:31:29.715Z,40.87
2022-12-01T22:34:03.395Z,38.30
2022-12-01T22:36:33.627Z,40.43
2022-12-01T22:39:02.797Z,38.73
2022-12-01T22:41:31.240Z,33.77
2022-12-01T22:44:01.501Z,40.47
2022-12-01T22:46:33.876Z,36.23
2022-12-01T22:49:04.224Z,38.97
2022-12-01T22:51:37.348Z,40.27
2022-12-01T22:54:24.494Z,41.90
2022-12-01T22:57:00.083Z,39.30
2022-12-01T22:59:34.407Z,36.97
2022-12-01T23:02:03.860Z,37.60
2022-12-01T23:04:34.522Z,39.10
2022-12-01T23:07:09.812Z,38.97
2022-12-01T23:09:39.907Z,32.73
2022-12-01T23:12:35.266Z,33.67
2022-12-01T23:15:24.906Z,35.77
2022-12-01T23:17:54.116Z,38.10
2022-12-01T23:20:27.985Z,34.70
2022-12-01T23:22:56.873Z,34.30
2022-12-01T23:25:27.262Z,34.37
2022-12-01T23:27:56.670Z,38.07
2022-12-01T23:30:26.486Z,33.73
2022-12-01T23:32:58.859Z,37.50
2022-12-01T23:35:27.245Z,37.57
2022-12-01T23:37:55.734Z,36.50
2022-12-01T23:40:28.119Z,35.43
2022-12-01T23:42:56.598Z,33.67
2022-12-01T23:45:26.978Z,31.00
2022-12-01T23:47:56.734Z,35.30
2022-12-01T23:50:26.785Z,35.23
2022-12-01T23:52:55.749Z,35.73
2022-12-01T23:55:27.325Z,32.27
2022-12-01T23:57:55.979Z,30.63
